createdAt,value
2018-06-23T00:01:26.029Z,9.80
2018-06-23T00:03:54.499Z,9.80
2018-06-23T00:06:23.278Z,9.80
2018-06-23T00:08:51.707Z,9.80
2018-06-23T00:11:20.505Z,9.80
2018-06-23T00:13:48.942Z,9.80
2018-06-23T00:16:17.497Z,9.80
2018-06-23T00:18:46.141Z,9.80
2018-06-23T00:21:14.571Z,9.80
2018-06-23T00:23:43.020Z,9.70
2018-06-23T00:26:17.876Z,9.70
2018-06-23T00:28:46.321Z,9.70
2018-06-23T00:31:14.940Z,9.60
2018-06-23T00:33:43.334Z,9.60
2018-06-23T00:36:12.127Z,9.60
2018-06-23T00:38:40.559Z,9.60
2018-06-23T00:41:09.070Z,9.60
2018-06-23T00:43:37.863Z,9.60
2018-06-23T00:46:06.318Z,9.60
2018-06-23T00:48:34.778Z,9.60
2018-06-23T00:51:03.243Z,9.60
2018-06-23T00:53:31.692Z,9.60
2018-06-23T00:56:00.445Z,9.60
2018-06-23T00:58:31.108Z,9.60
2018-06-23T01:00:59.605Z,9.60
2018-06-23T01:03:28.061Z,9.50
2018-06-23T01:05:56.684Z,9.50
2018-06-23T01:08:25.108Z,9.40
2018-06-23T01:10:53.556Z,9.40
2018-06-23T01:13:21.991Z,9.40
2018-06-23T01:15:50.530Z,9.40
2018-06-23T01:18:18.995Z,9.40
2018-06-23T01:20:47.434Z,9.30
2018-06-23T01:23:15.889Z,9.20
2018-06-23T01:25:44.330Z,9.20
2018-06-23T01:28:12.764Z,9.20
2018-06-23T01:30:41.228Z,9.10
2018-06-23T01:33:09.786Z,9.10
2018-06-23T01:35:38.241Z,9.00
2018-06-23T01:38:06.668Z,9.00
2018-06-23T01:40:35.092Z,9.00
2018-06-23T01:43:03.542Z,9.00
2018-06-23T01:45:32.033Z,9.10
2018-06-23T01:48:00.496Z,9.10
2018-06-23T01:50:28.916Z,9.00
2018-06-23T01:52:57.351Z,9.10
2018-06-23T01:55:25.777Z,9.10
2018-06-23T01:57:54.250Z,9.00
2018-06-23T02:00:22.699Z,9.00
2018-06-23T02:02:51.159Z,8.90
2018-06-23T02:05:19.575Z,8.90
2018-06-23T02:07:48.019Z,8.90
2018-06-23T02:10:16.453Z,8.70
2018-06-23T02:12:44.919Z,8.70
2018-06-23T02:15:13.442Z,8.60
2018-06-23T02:17:47.121Z,8.60
2018-06-23T02:20:20.761Z,8.60
2018-06-23T02:22:54.536Z,8.60
2018-06-23T02:25:28.095Z,8.60
2018-06-23T02:28:01.781Z,8.50
2018-06-23T02:30:35.292Z,8.50
2018-06-23T02:33:08.991Z,8.40
2018-06-23T02:35:37.416Z,8.30
2018-06-23T02:38:05.956Z,8.30
2018-06-23T02:40:34.435Z,8.30
2018-06-23T02:43:02.920Z,8.20
2018-06-23T02:45:31.365Z,8.20
2018-06-23T02:47:59.934Z,8.10
2018-06-23T02:50:28.464Z,8.10
2018-06-23T02:52:56.921Z,8.10
2018-06-23T02:55:25.356Z,8.10
2018-06-23T02:57:53.836Z,8.00
2018-06-23T03:00:22.261Z,7.90
2018-06-23T03:02:50.721Z,8.00
2018-06-23T03:05:19.205Z,8.00
2018-06-23T03:07:47.639Z,7.90
2018-06-23T03:10:16.051Z,7.90
2018-06-23T03:12:44.676Z,7.90
2018-06-23T03:15:14.026Z,8.00
2018-06-23T03:17:42.450Z,7.90
2018-06-23T03:20:10.880Z,7.90
2018-06-23T03:22:39.299Z,7.90
2018-06-23T03:25:07.749Z,7.90
2018-06-23T03:27:36.694Z,7.90
2018-06-23T03:30:05.137Z,7.80
2018-06-23T03:32:33.551Z,7.80
2018-06-23T03:35:01.968Z,7.90
2018-06-23T03:37:30.498Z,7.90
2018-06-23T03:39:58.900Z,7.90
2018-06-23T03:42:27.366Z,8.00
2018-06-23T03:44:55.907Z,7.90
2018-06-23T03:47:24.342Z,7.90
2018-06-23T03:49:52.787Z,8.00
2018-06-23T03:52:21.252Z,8.00
2018-06-23T03:54:49.671Z,8.00
2018-06-23T03:57:18.151Z,8.00
2018-06-23T03:59:46.633Z,8.00
2018-06-23T04:02:15.085Z,8.00
2018-06-23T04:04:43.514Z,8.10
2018-06-23T04:07:11.964Z,8.10
2018-06-23T04:09:40.369Z,8.20
2018-06-23T04:12:08.773Z,8.20
2018-06-23T04:14:37.254Z,8.30
2018-06-23T04:17:05.707Z,8.40
2018-06-23T04:19:34.183Z,8.60
2018-06-23T04:22:02.604Z,8.70
2018-06-23T04:24:31.431Z,8.90
2018-06-23T04:26:59.856Z,8.90
2018-06-23T04:29:28.386Z,9.00
2018-06-23T04:31:56.896Z,9.20
2018-06-23T04:34:25.347Z,9.30
2018-06-23T04:36:53.780Z,9.40
2018-06-23T04:39:22.215Z,9.60
2018-06-23T04:41:50.615Z,9.70
2018-06-23T04:44:19.100Z,9.80
2018-06-23T04:46:47.701Z,10.00
2018-06-23T04:49:16.114Z,10.00
2018-06-23T04:51:44.879Z,10.00
2018-06-23T04:54:13.352Z,10.00
2018-06-23T04:56:41.802Z,10.00
2018-06-23T04:59:10.249Z,10.00
2018-06-23T05:01:38.702Z,10.20
2018-06-23T05:04:07.146Z,10.40
2018-06-23T05:06:35.566Z,10.60
2018-06-23T05:09:05.599Z,10.80
2018-06-23T05:11:34.104Z,10.60
2018-06-23T05:14:02.587Z,10.60
2018-06-23T05:16:31.075Z,10.60
2018-06-23T05:18:59.783Z,10.70
2018-06-23T05:21:28.204Z,11.00
2018-06-23T05:23:57.159Z,11.20
2018-06-23T05:26:25.594Z,11.40
2018-06-23T05:28:54.043Z,11.50
2018-06-23T05:31:22.528Z,11.50
2018-06-23T05:33:50.989Z,11.20
2018-06-23T05:36:19.423Z,11.10
2018-06-23T05:38:48.346Z,10.90
2018-06-23T05:41:16.938Z,10.90
2018-06-23T05:43:45.612Z,10.90
2018-06-23T05:46:14.157Z,10.70
2018-06-23T05:48:42.670Z,10.80
2018-06-23T05:51:11.235Z,11.00
2018-06-23T05:53:40.040Z,11.30
2018-06-23T05:56:08.797Z,11.30
2018-06-23T05:58:37.470Z,11.70
2018-06-23T06:01:05.935Z,12.00
2018-06-23T06:03:34.367Z,11.70
2018-06-23T06:06:02.803Z,11.30
2018-06-23T06:08:32.095Z,11.20
2018-06-23T06:11:00.523Z,11.30
2018-06-23T06:13:28.933Z,11.30
2018-06-23T06:15:57.362Z,11.40
2018-06-23T06:18:26.172Z,11.30
2018-06-23T06:20:54.598Z,11.30
2018-06-23T06:23:23.027Z,11.30
2018-06-23T06:25:51.451Z,11.10
2018-06-23T06:28:19.886Z,11.20
2018-06-23T06:33:16.437Z,11.20
2018-06-23T06:35:44.892Z,11.30
2018-06-23T06:38:13.500Z,11.30
2018-06-23T06:40:41.936Z,11.20
2018-06-23T06:43:10.371Z,11.20
2018-06-23T06:45:38.790Z,11.50
2018-06-23T06:48:07.218Z,11.90
2018-06-23T06:50:35.696Z,12.10
2018-06-23T06:53:04.669Z,11.80
2018-06-23T06:55:33.082Z,11.80
2018-06-23T06:58:01.507Z,11.70
2018-06-23T07:00:29.967Z,11.80
2018-06-23T07:02:58.394Z,11.80
2018-06-23T07:05:26.991Z,11.70
2018-06-23T07:07:55.441Z,11.60
2018-06-23T07:10:24.021Z,11.60
2018-06-23T07:12:52.472Z,11.60
2018-06-23T07:15:20.959Z,11.80
2018-06-23T07:17:49.429Z,11.80
2018-06-23T07:20:17.878Z,11.80
2018-06-23T07:22:46.328Z,11.80
2018-06-23T07:25:14.763Z,12.00
2018-06-23T07:27:43.186Z,12.20
2018-06-23T07:30:11.616Z,11.90
2018-06-23T07:32:40.070Z,11.80
2018-06-23T07:35:08.679Z,11.80
2018-06-23T07:37:37.189Z,12.00
2018-06-23T07:40:05.669Z,12.00
2018-06-23T07:42:34.513Z,11.70
2018-06-23T07:45:03.388Z,11.70
2018-06-23T07:47:31.799Z,11.70
2018-06-23T07:50:00.263Z,12.00
2018-06-23T07:52:28.862Z,12.40
2018-06-23T07:54:57.316Z,12.50
2018-06-23T07:57:25.765Z,12.70
2018-06-23T07:59:54.212Z,12.40
2018-06-23T08:02:25.570Z,12.40
2018-06-23T08:04:54.039Z,12.60
2018-06-23T08:07:22.514Z,12.40
2018-06-23T08:09:50.970Z,12.10
2018-06-23T08:12:19.436Z,12.10
2018-06-23T08:14:48.064Z,12.20
2018-06-23T08:17:16.482Z,12.20
2018-06-23T08:19:45.272Z,12.00
2018-06-23T08:22:13.691Z,12.00
2018-06-23T08:24:42.266Z,12.20
2018-06-23T08:27:10.726Z,12.40
2018-06-23T08:29:39.189Z,12.40
2018-06-23T08:32:07.641Z,12.60
2018-06-23T08:34:36.063Z,12.80
2018-06-23T08:37:04.512Z,12.90
2018-06-23T08:39:32.958Z,12.80
2018-06-23T08:42:01.392Z,13.00
2018-06-23T08:44:29.832Z,13.10
2018-06-23T08:46:58.308Z,13.20
2018-06-23T08:49:26.786Z,13.00
2018-06-23T08:51:55.267Z,12.90
2018-06-23T08:54:23.692Z,12.80
2018-06-23T08:56:52.175Z,12.70
2018-06-23T08:59:20.959Z,12.80
2018-06-23T09:01:49.775Z,13.10
2018-06-23T09:04:18.368Z,13.30
2018-06-23T09:06:46.809Z,13.40
2018-06-23T09:09:15.272Z,13.60
2018-06-23T09:11:43.687Z,13.30
2018-06-23T09:14:12.151Z,13.40
2018-06-23T09:16:40.964Z,13.70
2018-06-23T09:19:09.566Z,14.20
2018-06-23T09:21:37.980Z,14.10
2018-06-23T09:24:06.430Z,14.00
2018-06-23T09:26:35.050Z,14.20
2018-06-23T09:29:03.899Z,14.70
2018-06-23T09:31:32.363Z,14.80
2018-06-23T09:34:00.903Z,14.70
2018-06-23T09:36:29.312Z,14.50
2018-06-23T09:38:57.775Z,14.30
2018-06-23T09:41:26.317Z,15.00
2018-06-23T09:43:54.792Z,16.30
2018-06-23T09:46:23.471Z,16.80
2018-06-23T09:48:52.056Z,17.20
2018-06-23T09:51:20.610Z,16.50
2018-06-23T09:53:49.179Z,16.20
2018-06-23T09:56:17.776Z,16.40
2018-06-23T09:58:46.304Z,16.70
2018-06-23T10:01:14.738Z,16.30
2018-06-23T10:03:43.554Z,16.30
2018-06-23T10:06:11.953Z,16.20
2018-06-23T10:08:40.413Z,15.60
2018-06-23T10:11:08.847Z,15.40
2018-06-23T10:13:37.273Z,15.50
2018-06-23T10:16:06.106Z,15.30
2018-06-23T10:18:34.575Z,15.90
2018-06-23T10:21:03.035Z,16.70
2018-06-23T10:23:31.515Z,16.50
2018-06-23T10:25:59.969Z,16.00
2018-06-23T10:28:28.384Z,16.70
2018-06-23T10:30:56.841Z,16.40
2018-06-23T10:33:25.689Z,16.40
2018-06-23T10:35:54.227Z,16.30
2018-06-23T10:38:22.753Z,16.20
2018-06-23T10:40:51.383Z,15.90
2018-06-23T10:43:19.847Z,16.00
2018-06-23T10:45:48.296Z,16.70
2018-06-23T10:48:16.730Z,16.20
2018-06-23T10:50:45.637Z,16.20
2018-06-23T10:53:14.082Z,16.00
2018-06-23T10:55:42.559Z,15.90
2018-06-23T10:58:11.013Z,15.90
2018-06-23T11:00:39.624Z,15.80
2018-06-23T11:03:08.058Z,15.70
2018-06-23T11:05:36.540Z,15.50
2018-06-23T11:08:04.988Z,15.10
2018-06-23T11:10:33.483Z,15.00
2018-06-23T11:13:01.948Z,15.10
2018-06-23T11:15:30.402Z,15.30
2018-06-23T11:17:59.181Z,15.30
2018-06-23T11:20:27.611Z,15.00
2018-06-23T11:22:56.077Z,14.90
2018-06-23T11:25:24.531Z,14.90
2018-06-23T11:27:52.978Z,15.10
2018-06-23T11:30:21.412Z,14.90
2018-06-23T11:32:49.852Z,14.90
2018-06-23T11:35:18.330Z,14.80
2018-06-23T11:37:46.795Z,14.80
2018-06-23T11:40:15.238Z,14.90
2018-06-23T11:42:43.845Z,14.90
2018-06-23T11:45:12.287Z,15.10
2018-06-23T11:47:40.743Z,15.00
2018-06-23T11:50:09.172Z,15.10
2018-06-23T11:52:37.819Z,15.20
2018-06-23T11:55:06.296Z,15.00
2018-06-23T11:57:34.734Z,14.80
2018-06-23T12:00:03.335Z,14.90
2018-06-23T12:02:31.789Z,14.90
2018-06-23T12:05:00.238Z,14.60
2018-06-23T12:07:28.740Z,14.60
2018-06-23T12:09:57.160Z,14.60
2018-06-23T12:12:25.675Z,14.70
2018-06-23T12:14:54.148Z,14.80
2018-06-23T12:17:22.583Z,14.80
2018-06-23T12:19:51.047Z,14.80
2018-06-23T12:22:19.828Z,14.90
2018-06-23T12:24:48.283Z,14.70
2018-06-23T12:27:16.727Z,14.60
2018-06-23T12:29:45.226Z,14.80
2018-06-23T12:32:13.630Z,14.70
2018-06-23T12:34:42.095Z,14.80
2018-06-23T12:37:10.755Z,15.10
2018-06-23T12:39:39.249Z,14.80
2018-06-23T12:42:07.714Z,14.80
2018-06-23T12:44:36.160Z,14.90
2018-06-23T12:47:04.973Z,15.10
2018-06-23T12:49:33.603Z,15.40
2018-06-23T12:52:02.086Z,15.70
2018-06-23T12:54:30.498Z,15.70
2018-06-23T12:56:58.962Z,15.40
2018-06-23T12:59:27.431Z,14.90
2018-06-23T13:01:55.907Z,15.00
2018-06-23T13:04:24.328Z,14.80
2018-06-23T13:06:52.775Z,14.80
2018-06-23T13:09:21.455Z,15.20
2018-06-23T13:11:50.274Z,15.30
2018-06-23T13:14:18.731Z,15.40
2018-06-23T13:16:47.218Z,15.40
2018-06-23T13:19:15.688Z,15.40
2018-06-23T13:21:44.151Z,15.30
2018-06-23T13:24:12.585Z,15.40
2018-06-23T13:26:47.379Z,15.40
2018-06-23T13:29:15.828Z,15.60
2018-06-23T13:31:44.318Z,15.20
2018-06-23T13:34:12.972Z,15.10
2018-06-23T13:36:41.425Z,15.00
2018-06-23T13:39:10.490Z,15.10
2018-06-23T13:41:38.967Z,15.00
2018-06-23T13:44:07.426Z,15.10
2018-06-23T13:46:35.956Z,15.00
2018-06-23T13:49:04.656Z,15.00
2018-06-23T13:51:33.489Z,15.40
2018-06-23T13:54:01.921Z,15.20
2018-06-23T13:56:30.364Z,15.00
2018-06-23T13:58:58.818Z,15.10
2018-06-23T14:01:27.283Z,15.20
2018-06-23T14:03:56.268Z,15.40
2018-06-23T14:06:24.690Z,15.40
2018-06-23T14:08:53.122Z,15.40
2018-06-23T14:11:21.620Z,15.30
2018-06-23T14:13:50.103Z,15.50
2018-06-23T14:16:18.576Z,15.70
2018-06-23T14:18:47.356Z,15.70
2018-06-23T14:21:15.813Z,15.50
2018-06-23T14:23:44.376Z,15.40
2018-06-23T14:26:12.815Z,15.70
2018-06-23T14:28:41.263Z,15.90
2018-06-23T14:31:09.894Z,16.00
2018-06-23T14:33:38.354Z,15.90
2018-06-23T14:36:07.149Z,16.10
2018-06-23T14:38:37.557Z,16.00
2018-06-23T14:41:05.990Z,16.10
2018-06-23T14:43:34.441Z,15.90
2018-06-23T14:46:03.266Z,16.00
2018-06-23T14:48:31.713Z,16.00
2018-06-23T14:51:00.143Z,16.20
2018-06-23T14:53:28.584Z,16.70
2018-06-23T14:55:57.027Z,17.00
2018-06-23T14:58:36.460Z,17.00
2018-06-23T15:01:04.961Z,16.80
2018-06-23T15:03:37.537Z,16.60
2018-06-23T15:06:07.679Z,16.70
2018-06-23T15:08:47.247Z,17.00
2018-06-23T15:11:26.752Z,16.90
2018-06-23T15:13:55.195Z,16.60
2018-06-23T15:16:23.661Z,16.40
2018-06-23T15:18:52.118Z,16.30
2018-06-23T15:21:20.544Z,16.60
2018-06-23T15:23:49.002Z,17.10
2018-06-23T15:26:17.429Z,16.50
2018-06-23T15:28:45.881Z,16.30
2018-06-23T15:31:14.393Z,16.70
2018-06-23T15:33:43.260Z,16.60
2018-06-23T15:36:12.073Z,16.70
2018-06-23T15:38:40.551Z,17.00
2018-06-23T15:41:09.451Z,16.70
2018-06-23T15:43:37.970Z,16.30
2018-06-23T15:46:06.790Z,16.30
2018-06-23T15:48:35.432Z,16.50
2018-06-23T15:51:03.893Z,16.90
2018-06-23T15:53:32.361Z,17.20
2018-06-23T15:56:00.774Z,17.50
2018-06-23T15:58:29.261Z,17.40
2018-06-23T16:00:57.725Z,17.50
2018-06-23T16:03:26.205Z,17.60
2018-06-23T16:05:54.647Z,17.50
2018-06-23T16:08:23.117Z,16.70
2018-06-23T16:10:51.713Z,16.70
2018-06-23T16:13:20.133Z,17.10
2018-06-23T16:15:48.627Z,17.50
2018-06-23T16:18:17.064Z,17.30
2018-06-23T16:20:45.540Z,17.30
2018-06-23T16:23:14.176Z,17.40
2018-06-23T16:25:42.757Z,17.50
2018-06-23T16:28:11.240Z,17.70
2018-06-23T16:30:39.708Z,17.20
2018-06-23T16:33:08.678Z,17.10
2018-06-23T16:35:37.130Z,17.00
2018-06-23T16:38:05.669Z,17.30
2018-06-23T16:40:34.252Z,17.10
2018-06-23T16:43:02.906Z,17.30
2018-06-23T16:45:31.405Z,17.70
2018-06-23T16:47:59.855Z,17.80
2018-06-23T16:50:28.794Z,17.70
2018-06-23T16:52:57.275Z,17.90
2018-06-23T16:55:25.743Z,18.00
2018-06-23T16:57:54.252Z,18.20
2018-06-23T17:00:24.729Z,17.60
2018-06-23T17:02:53.615Z,17.50
2018-06-23T17:05:22.102Z,17.30
2018-06-23T17:07:50.633Z,16.90
2018-06-23T17:10:19.048Z,16.70
2018-06-23T17:12:47.467Z,16.60
2018-06-23T17:15:15.988Z,16.80
2018-06-23T17:17:44.636Z,17.00
2018-06-23T17:20:13.436Z,16.90
2018-06-23T17:22:41.913Z,16.70
2018-06-23T17:25:10.380Z,16.60
2018-06-23T17:27:38.794Z,16.60
2018-06-23T17:30:07.366Z,16.60
2018-06-23T17:32:35.828Z,16.70
2018-06-23T17:35:04.309Z,16.90
2018-06-23T17:37:32.733Z,16.80
2018-06-23T17:40:01.197Z,16.90
2018-06-23T17:42:29.656Z,17.00
2018-06-23T17:44:58.135Z,17.00
2018-06-23T17:47:26.645Z,16.90
2018-06-23T17:49:55.079Z,17.00
2018-06-23T17:52:23.558Z,17.10
2018-06-23T17:54:52.013Z,17.10
2018-06-23T17:57:20.477Z,17.00
2018-06-23T17:59:49.103Z,16.90
2018-06-23T18:02:17.927Z,17.00
2018-06-23T18:04:46.381Z,16.90
2018-06-23T18:07:14.872Z,16.80
2018-06-23T18:09:43.381Z,16.80
2018-06-23T18:12:11.855Z,16.90
2018-06-23T18:14:40.435Z,16.90
2018-06-23T18:17:08.896Z,16.90
2018-06-23T18:19:37.359Z,16.90
2018-06-23T18:22:05.801Z,16.80
2018-06-23T18:24:34.235Z,16.80
2018-06-23T18:27:02.668Z,16.70
2018-06-23T18:29:31.142Z,16.70
2018-06-23T18:31:59.600Z,16.80
2018-06-23T18:34:28.056Z,16.70
2018-06-23T18:36:56.520Z,16.80
2018-06-23T18:39:24.977Z,16.80
2018-06-23T18:41:53.404Z,16.70
2018-06-23T18:44:21.824Z,16.80
2018-06-23T18:46:50.295Z,16.80
2018-06-23T18:49:19.076Z,16.80
2018-06-23T18:51:47.550Z,16.80
2018-06-23T18:54:16.378Z,16.70
2018-06-23T18:56:44.838Z,16.70
2018-06-23T18:59:13.287Z,16.70
2018-06-23T19:01:41.752Z,16.70
2018-06-23T19:04:10.187Z,16.70
2018-06-23T19:06:38.626Z,16.60
2018-06-23T19:09:08.795Z,16.50
2018-06-23T19:11:37.432Z,16.40
2018-06-23T19:14:05.865Z,16.30
2018-06-23T19:16:34.675Z,16.20
2018-06-23T19:19:03.795Z,16.10
2018-06-23T19:21:32.232Z,16.10
2018-06-23T19:24:00.696Z,16.10
2018-06-23T19:26:29.136Z,16.10
2018-06-23T19:28:57.629Z,16.00
2018-06-23T19:31:26.066Z,15.90
2018-06-23T19:33:54.599Z,15.90
2018-06-23T19:36:23.050Z,15.80
2018-06-23T19:38:51.490Z,15.70
2018-06-23T19:41:29.510Z,15.60
2018-06-23T19:43:58.086Z,15.50
2018-06-23T19:46:26.735Z,15.50
2018-06-23T19:48:55.184Z,15.40
2018-06-23T19:51:23.663Z,15.30
2018-06-23T19:53:52.212Z,15.20
2018-06-23T19:56:20.793Z,15.20
2018-06-23T19:58:49.268Z,15.20
2018-06-23T20:01:18.499Z,15.20
2018-06-23T20:03:46.967Z,15.10
2018-06-23T20:06:17.323Z,15.00
2018-06-23T20:08:45.768Z,15.00
2018-06-23T20:11:14.191Z,14.90
2018-06-23T20:13:42.597Z,14.90
2018-06-23T20:16:11.002Z,14.90
2018-06-23T20:18:39.436Z,14.80
2018-06-23T20:21:07.911Z,14.80
2018-06-23T20:23:36.366Z,14.80
2018-06-23T20:26:04.775Z,14.80
2018-06-23T20:28:33.277Z,14.70
2018-06-23T20:31:01.726Z,14.70
2018-06-23T20:33:30.181Z,14.60
2018-06-23T20:35:58.699Z,14.50
2018-06-23T20:38:27.171Z,14.50
2018-06-23T20:40:55.584Z,14.40
2018-06-23T20:43:24.009Z,14.40
2018-06-23T20:45:52.439Z,14.40
2018-06-23T20:48:21.049Z,14.40
2018-06-23T20:50:49.494Z,14.30
2018-06-23T20:53:18.036Z,14.30
2018-06-23T20:55:46.478Z,14.30
2018-06-23T20:58:14.928Z,14.20
2018-06-23T21:00:43.427Z,14.20
2018-06-23T21:03:11.872Z,14.20
2018-06-23T21:05:40.382Z,14.10
2018-06-23T21:08:08.831Z,14.00
2018-06-23T21:10:44.678Z,14.00
2018-06-23T21:13:13.322Z,13.90
2018-06-23T21:15:41.793Z,13.80
2018-06-23T21:18:10.504Z,13.80
2018-06-23T21:20:39.391Z,13.80
2018-06-23T21:23:08.192Z,13.70
2018-06-23T21:25:36.665Z,13.70
2018-06-23T21:28:05.715Z,13.70
2018-06-23T21:30:34.397Z,13.60
2018-06-23T21:33:03.050Z,13.60
2018-06-23T21:35:31.486Z,13.50
2018-06-23T21:37:59.957Z,13.50
2018-06-23T21:40:28.534Z,13.50
2018-06-23T21:42:57.074Z,13.50
2018-06-23T21:45:25.603Z,13.40
2018-06-23T21:47:54.048Z,13.40
2018-06-23T21:50:22.828Z,13.40
2018-06-23T21:52:51.232Z,13.30
2018-06-23T21:55:19.736Z,13.40
2018-06-23T21:57:48.951Z,13.30
2018-06-23T22:00:41.536Z,13.20
2018-06-23T22:03:11.498Z,13.20
2018-06-23T22:05:39.930Z,13.20
2018-06-23T22:08:08.941Z,13.20
2018-06-23T22:10:37.732Z,13.20
2018-06-23T22:13:06.179Z,13.20
2018-06-23T22:15:34.644Z,13.30
2018-06-23T22:18:03.459Z,13.30
2018-06-23T22:20:31.933Z,13.30
2018-06-23T22:23:00.368Z,13.30
2018-06-23T22:25:28.852Z,13.30
2018-06-23T22:27:57.498Z,13.30
2018-06-23T22:30:25.912Z,13.30
2018-06-23T22:32:54.362Z,13.30
2018-06-23T22:35:23.187Z,13.20
2018-06-23T22:37:51.612Z,13.20
2018-06-23T22:40:20.093Z,13.20
2018-06-23T22:42:48.576Z,13.20
2018-06-23T22:45:17.015Z,13.20
2018-06-23T22:47:45.435Z,13.20
2018-06-23T22:50:13.877Z,13.10
2018-06-23T22:52:42.320Z,13.10
2018-06-23T22:55:11.296Z,13.10
2018-06-23T22:57:39.836Z,13.10
2018-06-23T23:00:10.990Z,13.00
2018-06-23T23:02:39.794Z,13.00
2018-06-23T23:05:08.754Z,13.00
2018-06-23T23:07:37.253Z,13.00
2018-06-23T23:10:06.299Z,13.00
2018-06-23T23:12:34.785Z,12.90
2018-06-23T23:15:03.758Z,12.90
2018-06-23T23:17:32.367Z,12.90
2018-06-23T23:20:00.907Z,12.90
2018-06-23T23:22:29.602Z,12.90
2018-06-23T23:24:58.047Z,12.90
2018-06-23T23:27:26.527Z,13.00
2018-06-23T23:29:54.996Z,13.00
2018-06-23T23:32:23.430Z,13.00
2018-06-23T23:34:52.056Z,13.00
2018-06-23T23:37:20.536Z,13.00
2018-06-23T23:39:49.150Z,13.00
2018-06-23T23:42:17.577Z,13.00
2018-06-23T23:44:46.040Z,13.00
2018-06-23T23:47:14.500Z,13.00
2018-06-23T23:49:42.934Z,13.10
2018-06-23T23:52:11.383Z,13.10
2018-06-23T23:54:39.923Z,13.20
2018-06-23T23:57:08.523Z,13.10
2018-06-23T23:59:43.319Z,13.20
